Naples, Italy

2:49 AM CEST on August 25, 2016 (GMT +0200)
Calata San Marco | | Change Station

Elev 0 ft 40.84 °N, 14.25 °E | Updated 5 minutes ago

Clear
Clear
79.0 °F
Feels Like 80 °F
N
3.7
Wind Variable Wind from North
Gusts 10.6 mph

Today
High -- | Low -- °F
--% Chance of Precip.
Yesterday
High -- | Low -- °F
Precip. -- in
Pressure 30.01 in
Visibility -9999.0 miles
Clouds
Heat Index 80 °F
Dew Point 56 °F
Humidity 44%
Rainfall Not available.
Snow Depth Not available.
6:23 AM 7:45 PM
Waning Gibbous, 51% visible
METAR LIRN 250020Z 02005KT CAVOK 24/12 Q1016 NOSIG
Pressure 30.01 in
Visibility -9999.0 miles
Clouds
Heat Index 80 °F
Dew Point 56 °F
Humidity 44%
Rainfall Not available.
Snow Depth Not available.
6:23 AM 7:45 PM
Waning Gibbous, 51% visible
METAR LIRN 250020Z 02005KT CAVOK 24/12 Q1016 NOSIG

10-Day Weather Forecast

×

Almanac

Astronomy

Aug. 25, 2016 Rise Set
Actual Time
Civil Twilight
Nautical Twilight
Astronomical Twilight
Moon
Length of Visible Light
Length of Day
Tomorrow will be .
, % of the Moon is Illuminated

Today's Extremes

Country Highs Country Lows

Community

WunderPhotos

Upload Photos

1,934,748 photos uploaded!

WunderBlog® & News

Nearby

Air Quality

  Air Quality AQ Index Pollutant
Not available.

Snow Depth

Station Depth Elevation

Earthquake Activity

City Distance Mag. Time & Date
Minimum magnitude displayed is 2.5.

Coastal Water Temperatures

Place Temperature

Stations

Nearby Weather Stations

Station Location Temp. Windchill Dew Point Humidity Wind Precip. Elev Updated Type